Time;durP1;ratioP1;P1;durP2;ratioP2;P2;SDS_P1;SDS_P2;PMS_P1;PMS_P2;Temp;Humidity;BMP_temperature;BMP_pressure;BME280_temperature;BME280_humidity;BME280_pressure;Samples;Min_cycle;Max_cycle;Signal;HPM_P1;HPM_P2
2023/07/22 00:00:42;;;;;;;5.40;1.63;;;14.80;99.90;;;;;;5053963;28;20431;-87
2023/07/22 00:03:12;;;;;;;6.05;1.80;;;14.80;99.90;;;;;;5024999;28;20402;-86
2023/07/22 00:05:44;;;;;;;5.00;1.52;;;14.80;99.90;;;;;;5056895;28;20059;-86
2023/07/22 00:08:10;;;;;;;4.90;1.92;;;14.70;99.90;;;;;;5024402;28;20051;-86
2023/07/22 00:10:41;;;;;;;4.30;1.60;;;14.70;99.90;;;;;;5042827;28;20491;-87
2023/07/22 00:13:09;;;;;;;5.53;1.80;;;14.70;99.90;;;;;;5044243;28;20078;-87
2023/07/22 00:15:35;;;;;;;5.57;1.60;;;14.70;99.90;;;;;;5026842;28;20039;-87
2023/07/22 00:18:04;;;;;;;4.15;1.40;;;14.70;99.90;;;;;;5039605;28;20033;-86
2023/07/22 00:20:33;;;;;;;7.47;1.92;;;14.70;99.90;;;;;;5056000;28;20032;-86
2023/07/22 00:23:04;;;;;;;5.20;1.50;;;14.70;99.90;;;;;;5007919;28;20037;-86
2023/07/22 00:25:33;;;;;;;3.47;1.50;;;14.70;99.90;;;;;;5056763;28;20057;-86
2023/07/22 00:28:01;;;;;;;4.07;1.60;;;14.60;99.90;;;;;;5023881;28;20037;-86
2023/07/22 00:30:28;;;;;;;5.30;1.75;;;14.60;99.90;;;;;;5024052;28;20420;-86
2023/07/22 00:32:54;;;;;;;4.80;1.85;;;14.60;99.90;;;;;;5023464;28;20036;-86
2023/07/22 00:35:21;;;;;;;3.38;1.60;;;14.60;99.90;;;;;;5023783;28;20040;-87
2023/07/22 00:37:47;;;;;;;3.42;1.77;;;14.60;99.90;;;;;;5040070;28;20425;-86
2023/07/22 00:40:13;;;;;;;5.05;1.50;;;14.60;99.90;;;;;;5046011;28;20016;-86
2023/07/22 00:42:44;;;;;;;3.75;1.52;;;14.60;99.90;;;;;;5042888;28;20071;-86
2023/07/22 00:45:10;;;;;;;5.18;1.75;;;14.60;99.90;;;;;;5059473;28;20132;-86
2023/07/22 00:47:39;;;;;;;5.28;1.95;;;14.60;99.90;;;;;;5043361;28;20462;-86
2023/07/22 00:50:07;;;;;;;4.95;1.75;;;14.60;99.90;;;;;;5039963;28;20025;-86
2023/07/22 00:52:37;;;;;;;4.47;1.92;;;14.60;99.90;;;;;;5056241;28;20028;-86
2023/07/22 00:55:06;;;;;;;4.10;1.80;;;14.60;99.90;;;;;;5023819;28;20442;-86
2023/07/22 00:57:38;;;;;;;5.85;1.77;;;14.50;99.90;;;;;;5039887;28;20050;-86
2023/07/22 01:00:05;;;;;;;4.55;1.77;;;14.50;99.90;;;;;;5022969;28;20427;-86
2023/07/22 01:02:34;;;;;;;6.97;1.80;;;14.50;99.90;;;;;;5056025;28;20021;-87
2023/07/22 01:05:06;;;;;;;3.95;1.92;;;14.50;99.90;;;;;;5023981;28;20028;-86
2023/07/22 01:07:39;;;;;;;6.07;1.90;;;14.50;99.90;;;;;;5023550;28;20444;-86
2023/07/22 01:10:06;;;;;;;4.22;1.80;;;14.50;99.90;;;;;;5040043;28;20033;-86
2023/07/22 01:12:36;;;;;;;4.70;2.10;;;14.40;99.90;;;;;;5029645;28;20060;-86
2023/07/22 01:15:07;;;;;;;4.22;1.80;;;14.40;99.90;;;;;;4990552;28;20131;-86
2023/07/22 01:17:36;;;;;;;6.15;2.45;;;14.40;99.90;;;;;;5038159;28;20032;-86
2023/07/22 01:20:03;;;;;;;6.18;2.00;;;14.40;99.90;;;;;;5075605;28;20131;-86
2023/07/22 01:22:29;;;;;;;6.05;2.13;;;14.30;99.90;;;;;;5024452;28;20026;-86
2023/07/22 01:24:59;;;;;;;4.30;2.17;;;14.30;99.90;;;;;;5023054;28;20113;-86
2023/07/22 01:27:27;;;;;;;5.20;2.13;;;14.30;99.90;;;;;;5039419;28;20419;-87
2023/07/22 01:29:53;;;;;;;5.65;2.25;;;14.20;99.90;;;;;;5022177;28;20452;-86
2023/07/22 01:32:22;;;;;;;6.53;2.40;;;14.20;99.90;;;;;;5037616;28;20036;-86
2023/07/22 01:34:51;;;;;;;6.90;2.20;;;14.20;99.90;;;;;;5042589;28;20046;-87
2023/07/22 01:37:20;;;;;;;7.00;2.50;;;14.20;99.90;;;;;;5059082;28;20435;-86
2023/07/22 01:39:46;;;;;;;4.65;2.33;;;14.10;99.90;;;;;;5025827;28;20055;-86
2023/07/22 01:42:12;;;;;;;6.05;2.40;;;14.10;99.90;;;;;;5043179;28;20420;-86
2023/07/22 01:44:41;;;;;;;5.13;2.53;;;14.10;99.90;;;;;;5042705;28;20113;-86
2023/07/22 01:47:07;;;;;;;6.25;2.53;;;14.10;99.90;;;;;;5045499;28;20044;-86
2023/07/22 01:49:34;;;;;;;5.75;2.50;;;14.00;99.90;;;;;;5045286;28;20039;-86
2023/07/22 01:52:05;;;;;;;5.72;2.30;;;14.00;99.90;;;;;;5045398;28;20679;-86
2023/07/22 01:54:33;;;;;;;7.32;2.70;;;14.00;99.90;;;;;;5067873;28;20024;-87
2023/07/22 01:56:59;;;;;;;5.75;2.45;;;13.90;99.90;;;;;;5062262;28;20093;-87
2023/07/22 01:59:27;;;;;;;5.13;2.60;;;13.90;99.90;;;;;;5045935;28;20028;-86
2023/07/22 02:01:56;;;;;;;5.95;2.47;;;13.90;99.90;;;;;;5053489;28;20029;-86
2023/07/22 02:04:22;;;;;;;6.00;2.50;;;13.90;99.90;;;;;;5025079;28;20089;-86
2023/07/22 02:06:51;;;;;;;6.47;2.65;;;13.90;99.90;;;;;;5050445;28;20124;-86
2023/07/22 02:09:17;;;;;;;4.72;2.40;;;13.80;99.90;;;;;;5044863;28;20127;-86
2023/07/22 02:11:43;;;;;;;5.43;2.97;;;13.80;99.90;;;;;;5043558;28;20040;-86
2023/07/22 02:14:12;;;;;;;7.55;3.13;;;13.80;99.90;;;;;;5063155;28;20047;-86
2023/07/22 02:16:38;;;;;;;8.02;3.13;;;13.80;99.90;;;;;;5057809;28;20032;-86
2023/07/22 02:19:05;;;;;;;7.00;3.33;;;13.80;99.90;;;;;;5008732;28;20043;-86
2023/07/22 02:21:41;;;;;;;9.30;3.17;;;13.70;99.90;;;;;;5026341;28;20116;-87
2023/07/22 02:24:10;;;;;;;6.10;3.08;;;13.70;99.90;;;;;;5038728;28;20056;-86
2023/07/22 02:26:36;;;;;;;6.80;2.92;;;13.70;99.90;;;;;;5068233;28;20016;-86
2023/07/22 02:29:05;;;;;;;6.15;3.08;;;13.70;99.90;;;;;;5025342;28;20048;-86
2023/07/22 02:31:34;;;;;;;7.82;3.08;;;13.70;99.90;;;;;;5024897;28;20039;-88
2023/07/22 02:34:00;;;;;;;7.13;3.00;;;13.60;99.90;;;;;;5024911;28;20063;-86
2023/07/22 02:36:26;;;;;;;6.40;2.80;;;13.60;99.90;;;;;;5029332;28;20427;-86
2023/07/22 02:38:54;;;;;;;6.45;2.75;;;13.60;99.90;;;;;;5045002;28;20130;-86
2023/07/22 02:41:21;;;;;;;6.43;2.58;;;13.50;99.90;;;;;;5044797;28;20043;-86
2023/07/22 02:43:47;;;;;;;6.72;3.20;;;13.50;99.90;;;;;;5061204;28;20089;-87
2023/07/22 02:46:18;;;;;;;10.15;3.03;;;13.50;99.90;;;;;;5028036;28;20048;-86
2023/07/22 02:48:49;;;;;;;7.80;3.22;;;13.50;99.90;;;;;;5039994;28;20083;-86
2023/07/22 02:51:17;;;;;;;8.18;2.95;;;13.50;99.90;;;;;;5041235;28;20077;-86
2023/07/22 02:53:44;;;;;;;6.18;2.83;;;13.40;99.90;;;;;;5008495;28;20032;-86
2023/07/22 02:56:13;;;;;;;6.13;2.63;;;13.40;99.90;;;;;;5041779;28;20059;-86
2023/07/22 02:58:41;;;;;;;6.63;2.60;;;13.40;99.90;;;;;;5040761;28;20032;-86
2023/07/22 03:01:08;;;;;;;4.65;2.75;;;13.40;99.90;;;;;;5040797;28;20041;-86
2023/07/22 03:03:35;;;;;;;6.15;3.15;;;13.40;99.90;;;;;;5008581;28;20036;-88
2023/07/22 03:06:09;;;;;;;5.78;2.90;;;13.40;99.90;;;;;;5028818;28;20044;-86
2023/07/22 03:08:40;;;;;;;6.03;2.70;;;13.40;99.90;;;;;;5028851;28;20028;-87
2023/07/22 03:11:06;;;;;;;5.72;3.30;;;13.40;99.90;;;;;;5028216;28;20082;-86
2023/07/22 03:13:33;;;;;;;6.57;3.17;;;13.40;99.90;;;;;;5028255;28;20473;-86
2023/07/22 03:16:04;;;;;;;6.90;3.40;;;13.40;99.90;;;;;;5047210;28;20035;-86
2023/07/22 03:18:31;;;;;;;9.25;3.30;;;13.40;99.90;;;;;;5048101;28;20039;-86
2023/07/22 03:20:57;;;;;;;6.00;3.05;;;13.40;99.90;;;;;;5046142;28;20028;-86
2023/07/22 03:23:23;;;;;;;7.65;3.38;;;13.40;99.90;;;;;;5047880;28;20081;-86
2023/07/22 03:25:49;;;;;;;7.43;3.60;;;13.40;99.90;;;;;;5031752;28;20090;-86
2023/07/22 03:28:18;;;;;;;7.90;3.88;;;13.40;99.90;;;;;;5064743;28;20140;-87
2023/07/22 03:30:45;;;;;;;7.55;3.50;;;13.40;99.90;;;;;;5047611;28;20063;-86
2023/07/22 03:33:11;;;;;;;8.77;3.33;;;13.50;99.90;;;;;;5031582;28;20037;-86
2023/07/22 03:35:37;;;;;;;6.82;3.60;;;13.50;99.90;;;;;;5027875;28;20032;-86
2023/07/22 03:38:06;;;;;;;8.73;3.97;;;13.40;99.90;;;;;;5032573;28;20119;-87
2023/07/22 03:40:32;;;;;;;8.50;3.78;;;13.40;99.90;;;;;;5041365;28;20017;-87
2023/07/22 03:42:59;;;;;;;7.82;3.80;;;13.40;99.90;;;;;;5044185;28;20021;-86
2023/07/22 03:45:25;;;;;;;8.80;3.90;;;13.40;99.90;;;;;;5043533;28;20067;-87
2023/07/22 03:47:54;;;;;;;7.18;3.83;;;13.50;99.90;;;;;;5044183;28;20066;-86
2023/07/22 03:50:20;;;;;;;6.75;3.65;;;13.50;99.90;;;;;;5043866;28;20096;-85
2023/07/22 03:52:48;;;;;;;9.65;4.13;;;13.50;99.90;;;;;;5012149;28;20032;-86
2023/07/22 03:55:14;;;;;;;6.80;3.88;;;13.50;99.90;;;;;;5085471;28;20098;-86
2023/07/22 03:57:40;;;;;;;9.25;4.30;;;13.50;99.90;;;;;;5047334;28;20456;-89
2023/07/22 04:00:09;;;;;;;9.23;5.13;;;13.60;99.90;;;;;;5031389;28;20043;-86
2023/07/22 04:02:46;;;;;;;10.52;5.70;;;13.60;99.90;;;;;;5049570;28;20373;-86
2023/07/22 04:05:15;;;;;;;10.25;5.43;;;13.60;99.90;;;;;;5080606;28;20108;-86
2023/07/22 04:07:45;;;;;;;12.93;5.35;;;13.60;99.90;;;;;;5063711;28;20028;-87
2023/07/22 04:10:16;;;;;;;11.18;5.43;;;13.60;99.90;;;;;;5031055;28;20043;-86
2023/07/22 04:12:44;;;;;;;9.57;5.68;;;13.60;99.90;;;;;;5028099;28;20043;-87
2023/07/22 04:15:17;;;;;;;12.32;5.68;;;13.60;99.90;;;;;;5027181;28;20529;-86
2023/07/22 04:17:43;;;;;;;10.85;5.97;;;13.60;99.90;;;;;;5057387;28;20029;-89
2023/07/22 04:20:09;;;;;;;10.27;6.15;;;13.60;99.90;;;;;;5027453;28;20037;-86
2023/07/22 04:22:41;;;;;;;9.93;5.97;;;13.60;99.90;;;;;;5043976;28;20035;-86
2023/07/22 04:25:10;;;;;;;12.98;7.55;;;13.60;99.90;;;;;;5059936;28;20023;-86
2023/07/22 04:27:38;;;;;;;13.02;6.60;;;13.70;99.90;;;;;;5073583;28;20043;-86
2023/07/22 04:30:07;;;;;;;11.73;6.88;;;13.70;99.90;;;;;;5028773;28;20328;-86
2023/07/22 04:32:33;;;;;;;10.32;6.63;;;13.70;99.90;;;;;;5075081;28;20420;-86
2023/07/22 04:34:59;;;;;;;13.15;7.78;;;13.70;99.90;;;;;;5043095;28;20036;-86
2023/07/22 04:37:25;;;;;;;12.13;6.72;;;13.70;99.90;;;;;;5031884;28;20078;-86
2023/07/22 04:39:54;;;;;;;13.27;7.70;;;13.70;99.90;;;;;;5037354;28;20020;-87
2023/07/22 04:42:20;;;;;;;11.57;7.70;;;13.80;99.90;;;;;;5056019;28;20455;-86
2023/07/22 04:44:46;;;;;;;16.17;8.23;;;13.70;99.90;;;;;;5042763;28;20044;-88
2023/07/22 04:47:12;;;;;;;15.15;9.10;;;13.80;99.90;;;;;;5057419;28;20044;-86
2023/07/22 04:49:41;;;;;;;18.23;8.98;;;13.80;99.90;;;;;;5052190;28;20124;-86
2023/07/22 04:52:12;;;;;;;14.73;9.18;;;13.80;99.90;;;;;;5034695;28;20032;-85
2023/07/22 04:54:38;;;;;;;13.30;8.68;;;13.90;99.90;;;;;;5037803;28;20047;-86
2023/07/22 04:57:04;;;;;;;13.43;8.45;;;13.90;99.90;;;;;;5027154;28;20127;-87
2023/07/22 04:59:33;;;;;;;12.75;8.10;;;13.90;99.90;;;;;;5039417;28;20038;-87
2023/07/22 05:02:04;;;;;;;13.52;7.97;;;14.00;99.90;;;;;;5068098;28;20081;-86
2023/07/22 05:04:35;;;;;;;14.20;7.88;;;14.00;99.90;;;;;;5052455;28;20430;-86
2023/07/22 05:07:04;;;;;;;13.55;8.07;;;14.00;99.90;;;;;;5036984;28;20036;-86
2023/07/22 05:09:30;;;;;;;13.20;8.07;;;14.00;99.90;;;;;;5041036;28;20036;-85
2023/07/22 05:12:05;;;;;;;14.20;7.50;;;14.00;99.90;;;;;;5035409;28;20052;-86
2023/07/22 05:14:34;;;;;;;12.45;8.02;;;14.10;99.90;;;;;;5040970;28;20028;-86
2023/07/22 05:17:00;;;;;;;11.90;8.00;;;14.10;99.90;;;;;;5041826;28;20101;-86
2023/07/22 05:19:37;;;;;;;12.13;8.05;;;14.20;99.90;;;;;;5042506;28;20339;-86
2023/07/22 05:22:09;;;;;;;12.85;8.40;;;14.20;99.90;;;;;;5031254;28;20036;-86
2023/07/22 05:24:35;;;;;;;10.98;7.93;;;14.20;99.90;;;;;;5046575;28;20442;-86
2023/07/22 05:27:01;;;;;;;15.05;8.75;;;14.30;99.90;;;;;;5025865;28;20052;-86
2023/07/22 05:29:27;;;;;;;14.63;8.13;;;14.30;99.90;;;;;;5026958;28;20372;-86
2023/07/22 05:31:59;;;;;;;12.80;7.80;;;14.40;99.90;;;;;;5052224;28;20028;-86
2023/07/22 05:34:30;;;;;;;11.10;7.10;;;14.40;99.90;;;;;;5035818;28;20028;-87
2023/07/22 05:36:59;;;;;;;13.95;8.30;;;14.40;99.90;;;;;;5026510;28;20059;-88
2023/07/22 05:39:26;;;;;;;12.38;7.45;;;14.40;99.90;;;;;;5036499;28;20028;-86
2023/07/22 05:41:52;;;;;;;11.13;7.57;;;14.50;99.90;;;;;;5042900;28;20024;-87
2023/07/22 05:44:18;;;;;;;11.27;7.30;;;14.50;99.90;;;;;;5035565;28;20415;-88
2023/07/22 05:46:46;;;;;;;11.75;7.45;;;14.50;99.90;;;;;;5049730;28;20044;-85
2023/07/22 05:49:21;;;;;;;11.95;7.55;;;14.60;99.90;;;;;;5039502;28;20032;-87
2023/07/22 05:51:50;;;;;;;13.15;8.20;;;14.60;99.90;;;;;;5066087;28;20049;-86
2023/07/22 05:54:17;;;;;;;11.73;7.70;;;14.60;99.90;;;;;;5009737;28;20128;-87
2023/07/22 05:56:44;;;;;;;14.38;7.40;;;14.70;99.90;;;;;;5030816;28;20028;-86
2023/07/22 05:59:11;;;;;;;12.15;8.30;;;14.70;99.90;;;;;;5003147;28;20081;-86
2023/07/22 06:01:38;;;;;;;11.65;7.38;;;14.80;99.90;;;;;;5035447;28;20120;-86
2023/07/22 06:04:05;;;;;;;12.65;7.68;;;14.80;99.90;;;;;;5019342;28;20029;-85
2023/07/22 06:06:31;;;;;;;12.55;7.82;;;14.80;99.90;;;;;;5003333;28;20045;-86
2023/07/22 06:08:59;;;;;;;13.70;8.38;;;14.90;99.90;;;;;;5019453;28;20037;-85
2023/07/22 06:11:28;;;;;;;11.68;8.02;;;15.00;99.90;;;;;;5003745;28;20029;-85
2023/07/22 06:13:57;;;;;;;11.70;8.20;;;15.00;99.90;;;;;;5025249;28;20024;-86
2023/07/22 06:16:23;;;;;;;15.73;9.30;;;15.00;99.90;;;;;;5018939;28;20032;-85
2023/07/22 06:18:52;;;;;;;14.30;9.25;;;15.10;99.90;;;;;;5035956;28;20041;-86
2023/07/22 06:21:19;;;;;;;14.75;9.35;;;15.10;99.90;;;;;;5035992;28;20040;-86
2023/07/22 06:23:46;;;;;;;16.10;9.55;;;15.10;99.90;;;;;;5006909;28;20028;-86
2023/07/22 06:26:12;;;;;;;15.27;9.95;;;15.20;99.90;;;;;;5036052;28;20040;-86
2023/07/22 06:28:40;;;;;;;17.52;10.32;;;15.20;99.90;;;;;;5016700;28;20045;-86
2023/07/22 06:31:06;;;;;;;15.65;10.20;;;15.30;99.90;;;;;;5035907;28;20040;-86
2023/07/22 06:33:32;;;;;;;16.55;10.30;;;15.30;99.90;;;;;;5035594;28;20067;-87
2023/07/22 06:36:00;;;;;;;16.70;10.07;;;15.30;99.90;;;;;;5003517;28;20041;-86
2023/07/22 06:38:28;;;;;;;18.90;10.95;;;15.40;99.90;;;;;;5035413;28;20028;-87
2023/07/22 06:41:00;;;;;;;18.48;11.05;;;15.40;99.90;;;;;;5055858;28;20434;-88
2023/07/22 06:43:39;;;;;;;15.50;10.88;;;15.50;99.90;;;;;;5037884;28;20496;-86
2023/07/22 06:46:08;;;;;;;18.52;11.35;;;15.50;99.90;;;;;;5027451;28;20091;-85
2023/07/22 06:48:36;;;;;;;16.08;10.30;;;15.60;99.90;;;;;;5019551;28;20420;-86
2023/07/22 06:51:04;;;;;;;20.05;11.82;;;15.60;99.90;;;;;;5035892;28;20029;-86
2023/07/22 06:53:35;;;;;;;19.80;11.00;;;15.60;99.90;;;;;;5036174;28;20504;-86
2023/07/22 06:56:06;;;;;;;18.00;11.45;;;15.60;99.90;;;;;;5028280;28;20095;-86
2023/07/22 06:58:32;;;;;;;19.65;11.77;;;15.70;99.90;;;;;;5036489;28;20041;-86
2023/07/22 07:01:03;;;;;;;15.30;10.13;;;15.70;99.90;;;;;;5050955;28;20467;-86
2023/07/22 07:03:30;;;;;;;18.38;10.93;;;15.80;99.90;;;;;;5074496;28;20403;-86
2023/07/22 07:05:56;;;;;;;15.60;10.18;;;15.90;99.90;;;;;;5041111;28;20461;-86
2023/07/22 07:08:23;;;;;;;15.95;10.35;;;16.00;99.90;;;;;;5057690;28;20043;-86
2023/07/22 07:10:53;;;;;;;16.75;10.75;;;16.10;99.90;;;;;;5039339;28;20064;-85
2023/07/22 07:13:21;;;;;;;18.85;10.15;;;16.10;99.90;;;;;;5070585;28;20029;-86
2023/07/22 07:15:51;;;;;;;15.85;9.48;;;16.20;99.90;;;;;;5054826;28;20412;-86
2023/07/22 07:18:20;;;;;;;15.32;10.25;;;16.10;99.90;;;;;;5056579;28;20423;-86
2023/07/22 07:20:58;;;;;;;13.38;9.35;;;16.10;99.90;;;;;;5025606;28;20068;-85
2023/07/22 07:23:28;;;;;;;17.13;9.68;;;16.10;99.90;;;;;;5021891;28;20056;-86
2023/07/22 07:25:57;;;;;;;15.50;9.50;;;16.10;99.90;;;;;;5021729;28;20091;-86
2023/07/22 07:28:23;;;;;;;15.55;9.40;;;16.10;99.90;;;;;;5021631;28;20037;-86
2023/07/22 07:30:51;;;;;;;14.50;9.50;;;16.20;99.90;;;;;;5021554;28;20037;-86
2023/07/22 07:33:24;;;;;;;13.73;8.90;;;16.20;99.90;;;;;;5037903;28;20033;-86
2023/07/22 07:35:59;;;;;;;14.90;9.80;;;16.20;99.90;;;;;;5021823;28;20371;-86
2023/07/22 07:38:26;;;;;;;13.67;8.73;;;16.20;99.90;;;;;;5020655;28;20032;-87
2023/07/22 07:41:11;;;;;;;13.95;8.85;;;16.30;99.90;;;;;;5037455;28;20288;-86
2023/07/22 07:43:39;;;;;;;15.10;8.85;;;16.40;99.90;;;;;;5021020;28;20045;-86
2023/07/22 07:46:26;;;;;;;16.10;10.07;;;16.50;99.90;;;;;;5021068;28;20041;-87
2023/07/22 07:49:03;;;;;;;16.73;8.57;;;16.60;99.90;;;;;;5021187;28;20091;-87
2023/07/22 07:51:32;;;;;;;13.70;8.43;;;16.70;99.90;;;;;;5023297;28;20043;-86
2023/07/22 07:54:04;;;;;;;13.35;8.20;;;16.80;99.90;;;;;;5040656;28;20037;-86
2023/07/22 07:56:30;;;;;;;11.73;7.85;;;16.90;99.90;;;;;;5058413;28;20130;-86
2023/07/22 07:58:56;;;;;;;13.15;8.05;;;17.00;99.90;;;;;;5023985;28;20420;-86
2023/07/22 08:01:33;;;;;;;11.65;7.95;;;17.10;99.90;;;;;;5019636;28;20033;-86
2023/07/22 08:03:59;;;;;;;11.43;7.40;;;17.10;99.90;;;;;;5040667;28;20033;-86
2023/07/22 08:06:27;;;;;;;9.95;7.25;;;17.20;99.90;;;;;;5057164;28;20109;-86
2023/07/22 08:09:10;;;;;;;11.48;7.60;;;17.20;99.90;;;;;;5059283;28;20021;-86
2023/07/22 08:11:43;;;;;;;12.30;7.40;;;17.20;99.90;;;;;;5044428;28;20051;-86
2023/07/22 08:14:11;;;;;;;11.38;7.15;;;17.20;99.90;;;;;;5059933;28;20032;-86
2023/07/22 08:16:37;;;;;;;10.88;7.03;;;17.20;99.90;;;;;;5043759;28;20055;-86
2023/07/22 08:19:05;;;;;;;10.40;6.30;;;17.10;99.90;;;;;;5043758;28;20154;-87
2023/07/22 08:21:34;;;;;;;13.43;6.72;;;17.10;99.90;;;;;;5044572;28;20492;-86
2023/07/22 08:24:02;;;;;;;10.18;6.25;;;17.00;99.90;;;;;;5040794;28;20034;-87
2023/07/22 08:26:33;;;;;;;10.73;6.32;;;17.00;99.90;;;;;;5024534;28;20458;-87
2023/07/22 08:29:00;;;;;;;9.57;5.70;;;16.90;99.90;;;;;;5039904;28;20067;-88
2023/07/22 08:31:32;;;;;;;12.88;6.68;;;16.90;99.90;;;;;;5040359;28;20053;-87
2023/07/22 08:34:03;;;;;;;8.93;6.13;;;16.90;99.90;;;;;;5024995;28;20116;-86
2023/07/22 08:36:29;;;;;;;10.02;5.72;;;16.80;99.90;;;;;;5007717;28;20106;-86
2023/07/22 08:38:58;;;;;;;10.10;5.63;;;16.80;99.90;;;;;;5039903;28;20111;-87
2023/07/22 08:41:30;;;;;;;9.05;5.20;;;16.80;99.90;;;;;;5024150;28;20031;-86
2023/07/22 08:44:08;;;;;;;;;;;16.70;99.90;;;;;;5027439;28;20036;-86
2023/07/22 08:46:42;;;;;;;9.13;5.93;;;16.70;99.90;;;;;;5048596;28;20312;-86
2023/07/22 08:49:24;;;;;;;10.45;6.32;;;16.60;99.90;;;;;;5008798;28;20045;-86
2023/07/22 08:51:59;;;;;;;11.77;6.40;;;16.60;99.90;;;;;;5023560;28;20040;-86
2023/07/22 08:54:29;;;;;;;8.55;5.07;;;16.60;99.90;;;;;;5023228;28;20048;-86
2023/07/22 08:56:55;;;;;;;8.65;4.68;;;16.60;99.90;;;;;;5042950;28;20085;-86
2023/07/22 08:59:39;;;;;;;8.13;4.40;;;16.60;99.90;;;;;;5059775;28;20025;-86
2023/07/22 09:02:12;;;;;;;7.03;4.18;;;16.60;99.90;;;;;;5026711;28;20450;-86
2023/07/22 09:04:42;;;;;;;6.32;3.90;;;16.70;99.90;;;;;;5026475;28;20035;-86
2023/07/22 09:07:13;;;;;;;7.75;4.05;;;16.70;99.90;;;;;;5042976;28;20029;-87
2023/07/22 09:09:46;;;;;;;6.20;3.58;;;16.70;99.90;;;;;;5013016;28;20043;-87
2023/07/22 09:12:14;;;;;;;6.88;3.95;;;16.70;99.90;;;;;;5025746;28;20032;-87
2023/07/22 09:14:53;;;;;;;6.32;3.30;;;16.70;99.90;;;;;;5028633;28;20040;-87
2023/07/22 09:17:21;;;;;;;6.13;3.70;;;16.70;99.90;;;;;;5012906;28;20040;-87
2023/07/22 09:19:53;;;;;;;5.43;3.20;;;16.70;99.90;;;;;;5022557;28;20090;-87
2023/07/22 09:22:27;;;;;;;7.00;3.92;;;16.70;99.90;;;;;;5013500;28;20139;-87
2023/07/22 09:25:22;;;;;;;5.38;3.20;;;16.70;99.90;;;;;;5042850;28;20390;-86
2023/07/22 09:27:49;;;;;;;6.47;3.50;;;16.70;99.90;;;;;;5042572;28;20029;-87
2023/07/22 09:30:39;;;;;;;5.20;2.85;;;16.60;99.90;;;;;;5025957;28;20028;-86
2023/07/22 09:33:20;;;;;;;6.85;3.55;;;16.70;99.90;;;;;;5022450;28;20033;-86
2023/07/22 09:35:48;;;;;;;5.95;3.28;;;16.70;99.90;;;;;;5021838;28;20443;-86
2023/07/22 09:38:26;;;;;;;5.18;3.05;;;16.60;99.90;;;;;;5042039;28;20033;-87
2023/07/22 09:40:54;;;;;;;6.80;3.13;;;16.60;99.90;;;;;;5025945;28;20377;-86
2023/07/22 09:43:33;;;;;;;5.35;2.97;;;16.50;99.90;;;;;;5041928;28;20119;-87
2023/07/22 09:46:11;;;;;;;6.40;3.83;;;16.50;99.90;;;;;;5023554;28;20053;-86
2023/07/22 09:48:45;;;;;;;5.53;3.55;;;16.50;99.90;;;;;;5025446;28;20067;-87
2023/07/22 09:51:16;;;;;;;6.72;3.63;;;16.50;99.90;;;;;;5058779;28;20028;-86
2023/07/22 09:54:01;;;;;;;6.68;4.00;;;16.50;99.90;;;;;;5025826;28;20036;-86
2023/07/22 09:56:27;;;;;;;5.72;3.65;;;16.60;99.90;;;;;;5025641;28;20063;-86
2023/07/22 09:58:58;;;;;;;6.65;3.90;;;16.60;99.90;;;;;;5050684;28;20070;-86
2023/07/22 10:01:29;;;;;;;7.65;3.78;;;16.60;99.90;;;;;;5026171;28;20032;-87
2023/07/22 10:03:58;;;;;;;10.07;3.95;;;16.70;99.90;;;;;;5058805;28;20025;-86
2023/07/22 10:06:29;;;;;;;6.80;3.85;;;16.70;99.90;;;;;;5036592;28;20021;-86
2023/07/22 10:08:56;;;;;;;6.90;3.63;;;16.70;99.90;;;;;;5041727;28;20032;-86
2023/07/22 10:11:27;;;;;;;7.25;3.90;;;16.70;99.90;;;;;;5023786;28;20164;-86
2023/07/22 10:13:56;;;;;;;7.13;4.28;;;16.80;99.90;;;;;;5024663;28;20028;-87
2023/07/22 10:16:25;;;;;;;6.40;4.03;;;16.80;99.90;;;;;;5025227;28;20028;-86
2023/07/22 10:18:57;;;;;;;8.27;4.38;;;16.80;99.90;;;;;;5017069;28;20040;-87
2023/07/22 10:21:29;;;;;;;7.18;4.22;;;16.90;99.90;;;;;;5025433;28;20032;-87
2023/07/22 10:23:56;;;;;;;7.05;4.60;;;16.90;99.90;;;;;;5025508;28;20024;-87
2023/07/22 10:26:31;;;;;;;;;;;16.90;99.90;;;;;;5042510;28;20059;-87
2023/07/22 10:28:58;;;;;;;;;;;16.80;99.90;;;;;;5053350;28;20260;-86
2023/07/22 10:31:32;;;;;;;7.63;4.63;;;16.80;99.90;;;;;;5025230;28;19942;-86
2023/07/22 10:33:58;;;;;;;8.00;4.18;;;16.80;99.90;;;;;;5025138;28;20108;-86
2023/07/22 10:36:30;;;;;;;9.57;4.97;;;16.80;99.90;;;;;;5009202;28;20033;-87
2023/07/22 10:38:59;;;;;;;9.43;5.40;;;16.80;99.90;;;;;;5029102;28;20035;-87
2023/07/22 10:41:25;;;;;;;9.55;5.38;;;16.70;99.90;;;;;;5024949;28;20032;-87
2023/07/22 10:44:02;;;;;;;9.15;5.93;;;16.70;99.90;;;;;;5042187;28;20025;-86
2023/07/22 10:46:43;;;;;;;9.43;6.05;;;16.70;99.90;;;;;;5040815;28;20461;-87
2023/07/22 10:49:15;;;;;;;12.43;5.47;;;16.70;99.90;;;;;;5033372;28;20037;-87
2023/07/22 10:51:51;;;;;;;7.90;5.20;;;16.70;99.90;;;;;;5024781;28;20036;-86
2023/07/22 10:54:35;;;;;;;7.18;4.57;;;16.70;99.90;;;;;;5024813;28;20036;-87
2023/07/22 10:57:17;;;;;;;10.82;5.10;;;16.80;99.90;;;;;;5041209;28;20032;-87
2023/07/22 10:59:52;;;;;;;7.63;5.10;;;16.80;99.90;;;;;;5025492;28;20025;-86
2023/07/22 11:02:28;;;;;;;8.05;5.45;;;16.80;99.90;;;;;;5024728;28;20075;-87
2023/07/22 11:05:05;;;;;;;8.73;5.05;;;16.80;99.90;;;;;;5024954;28;20081;-87
2023/07/22 11:07:46;;;;;;;7.97;5.13;;;16.80;99.90;;;;;;5041360;28;20048;-87
2023/07/22 11:10:19;;;;;;;9.20;5.20;;;16.80;99.90;;;;;;5024442;28;20439;-87
2023/07/22 11:12:45;;;;;;;8.40;5.25;;;16.70;99.90;;;;;;5040921;28;20032;-87
2023/07/22 11:15:19;;;;;;;9.48;6.00;;;16.70;99.90;;;;;;5024912;28;20032;-87
2023/07/22 11:17:48;;;;;;;10.38;5.75;;;16.70;99.90;;;;;;5024696;28;20036;-86
2023/07/22 11:20:14;;;;;;;8.02;5.80;;;16.70;99.90;;;;;;5024136;28;20047;-86
2023/07/22 11:22:44;;;;;;;9.68;6.03;;;16.70;99.90;;;;;;5024338;28;20412;-86
2023/07/22 11:25:21;;;;;;;8.50;5.72;;;16.70;99.90;;;;;;5057630;28;20033;-86
2023/07/22 11:27:58;;;;;;;8.18;5.13;;;16.70;99.90;;;;;;5028862;28;20043;-87
2023/07/22 11:30:34;;;;;;;9.25;5.88;;;16.80;99.90;;;;;;5022153;28;20028;-87
2023/07/22 11:33:03;;;;;;;8.77;5.90;;;16.70;99.90;;;;;;5028368;28;20052;-86
2023/07/22 11:35:47;;;;;;;;;;;16.80;99.90;;;;;;5033216;28;20102;-86
2023/07/22 11:38:16;;;;;;;8.48;6.13;;;16.80;99.90;;;;;;5042355;28;19961;-87
2023/07/22 11:40:46;;;;;;;8.23;5.95;;;16.70;99.90;;;;;;5025003;28;20642;-87
2023/07/22 11:43:16;;;;;;;8.40;5.60;;;16.80;99.90;;;;;;5008679;28;20037;-86
2023/07/22 11:45:48;;;;;;;10.13;5.63;;;16.80;99.90;;;;;;5016940;28;20124;-86
2023/07/22 11:48:19;;;;;;;9.05;5.38;;;16.90;99.90;;;;;;5005983;28;20420;-86
2023/07/22 11:51:02;;;;;;;7.43;5.30;;;16.90;99.90;;;;;;5027672;28;20043;-86
2023/07/22 11:53:33;;;;;;;9.00;4.97;;;17.00;99.90;;;;;;5028420;28;20060;-87
2023/07/22 11:56:03;;;;;;;7.68;4.70;;;17.00;99.90;;;;;;5028572;28;20097;-86
2023/07/22 11:58:30;;;;;;;7.05;4.78;;;17.00;99.90;;;;;;5033607;28;20033;-87
2023/07/22 12:01:10;;;;;;;7.45;4.65;;;17.10;99.90;;;;;;5024398;28;20109;-86
2023/07/22 12:03:44;;;;;;;6.50;4.15;;;17.10;99.90;;;;;;5046212;28;20036;-86
2023/07/22 12:06:11;;;;;;;5.65;3.85;;;17.20;99.90;;;;;;5047416;28;20107;-86
2023/07/22 12:09:03;;;;;;;5.65;3.47;;;17.20;99.90;;;;;;5068873;28;20040;-86
2023/07/22 12:11:34;;;;;;;6.63;3.80;;;17.30;99.90;;;;;;5031072;28;20036;-86
2023/07/22 12:14:14;;;;;;;8.35;4.55;;;17.40;99.90;;;;;;5043993;28;20104;-86
2023/07/22 12:16:42;;;;;;;6.72;4.25;;;17.50;99.90;;;;;;5032311;28;20080;-86
2023/07/22 12:19:11;;;;;;;6.53;4.00;;;17.60;99.90;;;;;;5062764;28;20522;-86
2023/07/22 12:21:37;;;;;;;8.77;4.88;;;17.70;99.90;;;;;;5047172;28;20028;-86
2023/07/22 12:24:14;;;;;;;6.55;3.72;;;17.70;99.90;;;;;;5048045;28;20040;-86
2023/07/22 12:26:43;;;;;;;6.45;4.47;;;17.80;99.90;;;;;;5063591;28;20020;-86
2023/07/22 12:29:09;;;;;;;8.02;4.57;;;17.80;99.90;;;;;;5030713;28;20424;-86
2023/07/22 12:31:42;;;;;;;7.90;4.65;;;17.80;99.90;;;;;;5064355;28;20031;-86
2023/07/22 12:34:09;;;;;;;8.60;5.00;;;17.80;99.90;;;;;;5070353;28;20063;-86
2023/07/22 12:36:35;;;;;;;10.95;5.20;;;17.80;99.90;;;;;;5026283;28;20024;-86
2023/07/22 12:39:04;;;;;;;11.63;4.70;;;17.70;99.90;;;;;;5025588;28;20028;-87
2023/07/22 12:41:30;;;;;;;8.23;4.75;;;17.60;99.90;;;;;;5026277;28;20377;-87
2023/07/22 12:43:59;;;;;;;7.95;4.72;;;17.60;99.90;;;;;;5027614;28;20024;-86
2023/07/22 12:46:25;;;;;;;9.07;3.58;;;17.60;99.90;;;;;;5021220;28;20045;-86
2023/07/22 12:48:53;;;;;;;7.78;3.35;;;17.50;99.90;;;;;;5039814;28;20032;-86
2023/07/22 12:51:22;;;;;;;8.25;3.55;;;17.50;99.90;;;;;;5048309;28;20048;-86
2023/07/22 12:53:53;;;;;;;8.15;3.38;;;17.50;99.90;;;;;;5057750;28;20041;-87
2023/07/22 12:56:21;;;;;;;7.82;3.47;;;17.50;99.90;;;;;;5028527;28;20051;-86